createdAt,value
2017-06-02T00:00:02.032Z,74.37
2017-06-02T00:00:58.344Z,74.38
2017-06-02T00:01:54.652Z,74.37
2017-06-02T00:02:50.967Z,74.42
2017-06-02T00:03:47.287Z,74.39
2017-06-02T00:04:43.599Z,74.40
2017-06-02T00:05:39.883Z,74.47
2017-06-02T00:06:36.161Z,74.54
2017-06-02T00:07:32.480Z,74.53
2017-06-02T00:08:28.780Z,74.54
2017-06-02T00:09:25.088Z,74.58
2017-06-02T00:10:21.356Z,74.58
2017-06-02T00:11:17.675Z,74.68
2017-06-02T00:12:13.959Z,74.71
2017-06-02T00:13:10.299Z,74.72
2017-06-02T00:14:06.576Z,74.72
2017-06-02T00:15:02.911Z,74.74
2017-06-02T00:15:59.255Z,74.78
2017-06-02T00:16:55.519Z,74.78
2017-06-02T00:17:51.799Z,74.82
2017-06-02T00:18:48.095Z,74.84
2017-06-02T00:19:44.427Z,74.84
2017-06-02T00:20:40.715Z,74.83
2017-06-02T00:21:36.991Z,74.87
2017-06-02T00:22:33.283Z,74.97
2017-06-02T00:23:29.551Z,74.91
2017-06-02T00:24:25.835Z,74.97
2017-06-02T00:25:22.099Z,75.02
2017-06-02T00:26:18.363Z,75.05
2017-06-02T00:27:14.660Z,75.10
2017-06-02T00:28:10.947Z,75.15
2017-06-02T00:29:07.231Z,75.20
2017-06-02T00:30:03.475Z,75.23
2017-06-02T00:31:00.503Z,75.25
2017-06-02T00:31:57.707Z,75.34
2017-06-02T00:32:53.971Z,75.47
2017-06-02T00:33:50.287Z,75.49
2017-06-02T00:34:46.611Z,75.52
2017-06-02T00:35:42.882Z,75.47
2017-06-02T00:36:39.160Z,75.52
2017-06-02T00:37:35.442Z,75.62
2017-06-02T00:38:31.742Z,75.58
2017-06-02T00:39:28.020Z,75.57
2017-06-02T00:40:24.291Z,75.60
2017-06-02T00:41:20.551Z,75.67
2017-06-02T00:42:16.818Z,75.71
2017-06-02T00:43:13.087Z,75.78
2017-06-02T00:44:09.339Z,75.80
2017-06-02T00:45:05.622Z,75.83
2017-06-02T00:46:01.900Z,75.88
2017-06-02T00:46:58.177Z,75.92
2017-06-02T00:47:54.491Z,75.96
2017-06-02T00:48:50.771Z,76.00
2017-06-02T00:49:47.049Z,76.04
2017-06-02T00:50:43.314Z,75.99
2017-06-02T00:51:39.644Z,76.01
2017-06-02T00:52:35.955Z,76.06
2017-06-02T00:53:32.231Z,76.04
2017-06-02T00:54:28.564Z,76.06
2017-06-02T00:55:24.896Z,76.09
2017-06-02T00:56:21.191Z,76.11
2017-06-02T00:57:17.483Z,76.14
2017-06-02T00:58:13.806Z,76.10
2017-06-02T00:59:10.108Z,76.14
2017-06-02T01:00:06.387Z,76.16
2017-06-02T01:01:02.771Z,76.13
2017-06-02T01:01:59.109Z,76.18
2017-06-02T01:02:55.391Z,76.09
2017-06-02T01:03:51.687Z,76.17
2017-06-02T01:04:48.044Z,76.22
2017-06-02T01:05:44.367Z,76.25
2017-06-02T01:06:40.667Z,76.25
2017-06-02T01:07:37.807Z,76.24
2017-06-02T01:08:34.143Z,76.31
2017-06-02T01:09:30.455Z,76.32
2017-06-02T01:10:26.724Z,76.34
2017-06-02T01:11:23.044Z,76.33
2017-06-02T01:12:20.287Z,76.37
2017-06-02T01:13:17.471Z,76.41
2017-06-02T01:14:14.627Z,76.48
2017-06-02T01:15:10.947Z,76.43
2017-06-02T01:16:07.227Z,76.53
2017-06-02T01:17:03.571Z,76.48
2017-06-02T01:17:59.916Z,76.50
2017-06-02T01:18:56.211Z,76.54
2017-06-02T01:19:52.523Z,76.60
2017-06-02T01:20:48.868Z,76.58
2017-06-02T01:21:45.228Z,76.65
2017-06-02T01:22:41.576Z,76.67
2017-06-02T01:23:37.894Z,76.65
2017-06-02T01:24:34.206Z,76.68
2017-06-02T01:25:30.479Z,76.76
2017-06-02T01:26:26.763Z,76.73
2017-06-02T01:27:23.031Z,76.73
2017-06-02T01:28:19.307Z,76.75
2017-06-02T01:29:15.583Z,76.85
2017-06-02T01:30:11.927Z,76.94
2017-06-02T01:31:08.231Z,76.99
2017-06-02T01:32:04.499Z,76.95
2017-06-02T01:33:00.819Z,76.99
2017-06-02T01:33:57.163Z,76.96
2017-06-02T01:34:53.519Z,77.07
2017-06-02T01:35:49.871Z,77.22
2017-06-02T01:36:46.187Z,77.15
2017-06-02T01:37:42.506Z,77.22
2017-06-02T01:38:38.819Z,77.30
2017-06-02T01:39:35.121Z,77.38
2017-06-02T01:40:31.387Z,77.36
2017-06-02T01:41:27.727Z,77.42
2017-06-02T01:42:24.023Z,77.42
2017-06-02T01:43:21.163Z,77.46
2017-06-02T01:44:17.472Z,77.54
2017-06-02T01:45:13.817Z,77.56
2017-06-02T01:46:10.139Z,77.56
2017-06-02T01:47:06.991Z,77.56
2017-06-02T01:48:03.279Z,77.57
2017-06-02T01:48:59.609Z,77.62
2017-06-02T01:49:56.864Z,77.63
2017-06-02T01:50:53.243Z,77.68
2017-06-02T01:51:49.647Z,77.68
2017-06-02T01:52:45.992Z,77.71
2017-06-02T01:53:42.319Z,77.79
2017-06-02T01:54:38.634Z,77.78
2017-06-02T01:55:34.961Z,77.72
2017-06-02T01:56:31.241Z,77.83
2017-06-02T01:57:27.559Z,77.82
2017-06-02T01:58:23.859Z,77.82
2017-06-02T01:59:20.143Z,77.91
2017-06-02T02:00:16.451Z,77.87
2017-06-02T02:01:12.815Z,78.01
2017-06-02T02:02:09.115Z,78.00
2017-06-02T02:03:05.445Z,78.07
2017-06-02T02:04:01.746Z,78.01
2017-06-02T02:04:58.119Z,78.04
2017-06-02T02:05:54.497Z,78.11
2017-06-02T02:06:51.618Z,78.08
2017-06-02T02:07:48.791Z,78.09
2017-06-02T02:08:45.139Z,78.13
2017-06-02T02:09:41.441Z,78.14
2017-06-02T02:10:37.743Z,78.10
2017-06-02T02:11:34.107Z,78.16
2017-06-02T02:12:30.464Z,78.14
2017-06-02T02:13:26.767Z,78.12
2017-06-02T02:14:23.115Z,78.18
2017-06-02T02:15:19.475Z,78.20
2017-06-02T02:16:15.837Z,78.20
2017-06-02T02:17:12.171Z,78.26
2017-06-02T02:18:08.487Z,78.24
2017-06-02T02:19:04.800Z,78.30
2017-06-02T02:20:01.108Z,78.26
2017-06-02T02:20:57.403Z,78.34
2017-06-02T02:21:53.724Z,78.32
2017-06-02T02:22:50.068Z,78.33
2017-06-02T02:23:46.503Z,78.38
2017-06-02T02:24:42.856Z,78.37
2017-06-02T02:25:39.135Z,78.39
2017-06-02T02:26:35.491Z,78.38
2017-06-02T02:27:31.835Z,78.40
2017-06-02T02:28:28.193Z,78.43
2017-06-02T02:29:24.543Z,78.45
2017-06-02T02:30:20.863Z,78.46
2017-06-02T02:31:17.171Z,78.50
2017-06-02T02:32:14.432Z,78.51
2017-06-02T02:33:10.754Z,78.49
2017-06-02T02:34:07.072Z,78.42
2017-06-02T02:35:04.334Z,78.47
2017-06-02T02:36:00.659Z,78.51
2017-06-02T02:36:57.039Z,78.50
2017-06-02T02:37:53.347Z,78.54
2017-06-02T02:38:49.635Z,78.54
2017-06-02T02:39:45.942Z,78.60
2017-06-02T02:40:42.487Z,78.61
2017-06-02T02:41:38.847Z,78.64
2017-06-02T02:42:35.210Z,78.66
2017-06-02T02:43:31.549Z,78.64
2017-06-02T02:44:27.888Z,78.66
2017-06-02T02:45:24.195Z,78.66
2017-06-02T02:46:20.477Z,78.69
2017-06-02T02:47:16.816Z,78.67
2017-06-02T02:48:13.144Z,78.67
2017-06-02T02:49:09.455Z,78.69
2017-06-02T02:50:05.783Z,78.71
2017-06-02T02:51:02.109Z,78.79
2017-06-02T02:51:58.447Z,78.82
2017-06-02T02:52:54.755Z,78.83
2017-06-02T02:53:51.063Z,78.88
2017-06-02T02:54:47.440Z,78.86
2017-06-02T02:55:43.743Z,78.86
2017-06-02T02:56:40.083Z,78.93
2017-06-02T02:57:36.437Z,78.97
2017-06-02T02:58:32.791Z,78.95
2017-06-02T02:59:29.087Z,78.97
2017-06-02T03:00:26.275Z,78.98
2017-06-02T03:01:22.603Z,79.01
2017-06-02T03:02:18.937Z,79.03
2017-06-02T03:03:15.260Z,79.04
2017-06-02T03:04:11.579Z,79.09
2017-06-02T03:05:07.880Z,79.04
2017-06-02T03:06:04.231Z,79.10
2017-06-02T03:07:00.603Z,79.17
2017-06-02T03:07:56.955Z,79.15
2017-06-02T03:08:53.399Z,79.15
2017-06-02T03:09:49.697Z,79.22
2017-06-02T03:10:46.129Z,79.17
2017-06-02T03:11:42.487Z,79.14
2017-06-02T03:12:38.803Z,79.15
2017-06-02T03:13:35.099Z,79.17
2017-06-02T03:14:31.428Z,79.15
2017-06-02T03:15:28.727Z,79.20
2017-06-02T03:16:25.064Z,79.21
2017-06-02T03:17:21.442Z,79.24
2017-06-02T03:18:17.834Z,79.31
2017-06-02T03:19:14.112Z,79.32
2017-06-02T03:20:10.486Z,79.36
2017-06-02T03:21:06.831Z,79.42
2017-06-02T03:22:03.151Z,79.54
2017-06-02T03:22:59.456Z,79.59
2017-06-02T03:23:55.771Z,79.65
2017-06-02T03:24:52.187Z,79.75
2017-06-02T03:25:48.547Z,79.82
2017-06-02T03:26:44.836Z,79.88
2017-06-02T03:27:41.192Z,79.95
2017-06-02T03:28:37.539Z,80.02
2017-06-02T03:29:33.940Z,80.08
2017-06-02T03:30:30.315Z,80.13
2017-06-02T03:31:26.619Z,80.18
2017-06-02T03:32:22.943Z,80.24
2017-06-02T03:33:19.280Z,80.29
2017-06-02T03:34:15.687Z,80.33
2017-06-02T03:35:12.167Z,80.39
2017-06-02T03:36:08.452Z,80.41
2017-06-02T03:37:04.807Z,80.47
2017-06-02T03:38:01.169Z,80.49
2017-06-02T03:38:57.548Z,80.53
2017-06-02T03:39:53.971Z,80.58
2017-06-02T03:40:50.332Z,80.61
2017-06-02T03:41:46.720Z,80.63
2017-06-02T03:42:43.071Z,80.68
2017-06-02T03:43:39.402Z,80.68
2017-06-02T03:44:35.795Z,80.72
2017-06-02T03:45:33.068Z,80.78
2017-06-02T03:46:29.503Z,80.82
2017-06-02T03:47:25.803Z,80.85
2017-06-02T03:48:22.136Z,80.91
2017-06-02T03:49:18.496Z,80.96
2017-06-02T03:50:14.867Z,81.01
2017-06-02T03:51:11.331Z,81.04
2017-06-02T03:52:07.645Z,81.08
2017-06-02T03:53:03.973Z,81.11
2017-06-02T03:54:00.328Z,81.14
2017-06-02T03:54:56.794Z,81.17
2017-06-02T03:55:53.115Z,81.17
2017-06-02T03:56:49.457Z,81.22
2017-06-02T03:57:46.609Z,81.25
2017-06-02T03:58:42.874Z,81.26
2017-06-02T03:59:39.217Z,81.26
2017-06-02T04:00:35.584Z,81.29
2017-06-02T04:01:31.951Z,81.30
2017-06-02T04:02:28.259Z,81.35
2017-06-02T04:03:25.447Z,81.38
2017-06-02T04:04:21.764Z,81.40
2017-06-02T04:05:18.120Z,81.45
2017-06-02T04:06:14.455Z,81.49
2017-06-02T04:07:10.792Z,81.53
2017-06-02T04:08:07.115Z,81.55
2017-06-02T04:09:03.444Z,81.56
2017-06-02T04:09:59.811Z,81.59
2017-06-02T04:10:56.160Z,81.61
2017-06-02T04:11:52.547Z,81.65
2017-06-02T04:12:48.907Z,81.71
2017-06-02T04:13:45.216Z,81.75
2017-06-02T04:14:43.764Z,81.76
2017-06-02T04:15:40.172Z,81.83
2017-06-02T04:16:36.579Z,81.83
2017-06-02T04:17:33.779Z,81.88
2017-06-02T04:18:30.116Z,81.92
2017-06-02T04:19:26.500Z,81.93
2017-06-02T04:20:22.839Z,81.96
2017-06-02T04:21:19.203Z,81.96
2017-06-02T04:22:15.519Z,82.01
2017-06-02T04:23:11.842Z,82.01
2017-06-02T04:24:08.187Z,82.01
2017-06-02T04:25:04.479Z,82.01
2017-06-02T04:26:01.687Z,82.01
2017-06-02T04:26:58.119Z,82.03
2017-06-02T04:27:54.463Z,82.03
2017-06-02T04:28:50.948Z,82.05
2017-06-02T04:29:47.335Z,82.06
2017-06-02T04:30:44.568Z,82.08
2017-06-02T04:31:40.875Z,82.08
2017-06-02T04:32:37.195Z,82.09
2017-06-02T04:33:33.511Z,82.10
2017-06-02T04:34:31.783Z,82.19
2017-06-02T04:35:28.944Z,82.30
2017-06-02T04:36:25.335Z,82.34
2017-06-02T04:37:21.683Z,82.39
2017-06-02T04:38:18.083Z,82.46
2017-06-02T04:39:14.379Z,82.51
2017-06-02T04:40:10.779Z,82.55
2017-06-02T04:41:07.123Z,82.52
2017-06-02T04:44:19.127Z,82.53
2017-06-02T04:45:15.439Z,82.48
2017-06-02T04:46:11.796Z,82.42
2017-06-02T04:47:08.103Z,82.41
2017-06-02T04:48:04.479Z,82.44
2017-06-02T04:49:00.803Z,82.48
2017-06-02T04:49:57.138Z,82.52
2017-06-02T04:50:53.447Z,82.53
2017-06-02T04:51:49.775Z,82.52
2017-06-02T04:52:46.052Z,82.49
2017-06-02T04:53:42.369Z,82.47
2017-06-02T04:54:38.783Z,82.47
2017-06-02T04:55:35.132Z,82.49
2017-06-02T04:56:31.436Z,82.51
2017-06-02T04:57:27.727Z,82.59
2017-06-02T04:58:24.059Z,82.70
2017-06-02T04:59:21.207Z,82.79
2017-06-02T05:00:19.411Z,82.87
2017-06-02T05:01:16.511Z,82.89
2017-06-02T05:02:12.795Z,82.90
2017-06-02T05:03:09.128Z,82.92
2017-06-02T05:04:05.411Z,82.93
2017-06-02T05:05:01.700Z,82.89
2017-06-02T05:05:57.967Z,82.88
2017-06-02T05:06:54.262Z,82.85
2017-06-02T05:07:50.531Z,82.83
2017-06-02T05:08:46.803Z,82.82
2017-06-02T05:09:43.061Z,82.79
2017-06-02T05:10:39.312Z,82.72
2017-06-02T05:11:35.579Z,82.66
2017-06-02T05:12:31.838Z,82.56
2017-06-02T05:13:28.107Z,82.50
2017-06-02T05:14:27.199Z,82.39
2017-06-02T05:15:23.503Z,82.29
2017-06-02T05:16:19.839Z,82.17
2017-06-02T05:17:16.156Z,82.04
2017-06-02T05:18:12.515Z,81.93
2017-06-02T05:19:08.787Z,81.82
2017-06-02T05:20:06.037Z,81.74
2017-06-02T05:21:02.271Z,81.50
2017-06-02T05:21:58.560Z,81.29
2017-06-02T05:22:54.823Z,81.05
2017-06-02T05:23:51.099Z,80.85
2017-06-02T05:24:48.299Z,80.67
2017-06-02T05:25:45.566Z,80.47
2017-06-02T05:26:41.848Z,80.31
2017-06-02T05:27:38.105Z,80.20
2017-06-02T05:28:34.356Z,80.17
2017-06-02T05:29:30.615Z,80.16
2017-06-02T05:30:26.999Z,79.97
2017-06-02T05:31:23.251Z,79.79
2017-06-02T05:32:19.539Z,79.68
2017-06-02T05:33:15.804Z,79.52
2017-06-02T05:34:12.615Z,79.36
2017-06-02T05:35:09.667Z,79.26
2017-06-02T05:36:05.979Z,79.17
2017-06-02T05:37:02.243Z,79.00
2017-06-02T05:37:58.531Z,78.92
2017-06-02T05:38:55.035Z,78.84
2017-06-02T05:39:52.250Z,78.82
2017-06-02T05:40:48.510Z,78.82
2017-06-02T05:41:44.792Z,78.77
2017-06-02T05:42:41.059Z,78.54
2017-06-02T05:43:37.343Z,78.31
2017-06-02T05:44:33.706Z,78.10
2017-06-02T05:45:29.999Z,78.03
2017-06-02T05:46:26.306Z,77.89
2017-06-02T05:47:22.584Z,77.76
2017-06-02T05:48:18.867Z,77.68
2017-06-02T05:49:16.099Z,77.56
2017-06-02T05:50:12.362Z,77.49
2017-06-02T05:51:08.631Z,77.44
2017-06-02T05:52:05.011Z,77.34
2017-06-02T05:53:01.303Z,77.23
2017-06-02T05:53:57.707Z,77.06
2017-06-02T05:54:53.979Z,76.86
2017-06-02T05:55:50.243Z,76.67
2017-06-02T05:56:46.500Z,76.57
2017-06-02T05:57:42.762Z,76.51
2017-06-02T05:58:39.059Z,76.49
2017-06-02T05:59:35.587Z,76.46
2017-06-02T06:00:31.866Z,76.43
2017-06-02T06:01:28.295Z,76.40
2017-06-02T06:02:25.346Z,76.38
2017-06-02T06:03:21.619Z,76.34
2017-06-02T06:04:17.884Z,76.33
2017-06-02T06:05:14.152Z,76.27
2017-06-02T06:06:11.344Z,76.19
2017-06-02T06:07:07.640Z,76.09
2017-06-02T06:08:04.003Z,76.03
2017-06-02T06:09:00.277Z,75.96
2017-06-02T06:09:56.591Z,75.96
2017-06-02T06:10:52.856Z,75.93
2017-06-02T06:11:49.119Z,75.89
2017-06-02T06:12:45.374Z,75.87
2017-06-02T06:13:41.667Z,75.84
2017-06-02T06:14:37.943Z,75.79
2017-06-02T06:15:35.084Z,75.66
2017-06-02T06:16:31.356Z,75.52
2017-06-02T06:17:27.607Z,75.39
2017-06-02T06:18:23.864Z,75.20
2017-06-02T06:19:21.091Z,75.13
2017-06-02T06:20:17.375Z,75.10
2017-06-02T06:21:14.488Z,75.08
2017-06-02T06:22:10.743Z,75.00
2017-06-02T06:23:07.131Z,74.92
2017-06-02T06:24:03.382Z,74.83
2017-06-02T06:24:59.703Z,74.71
2017-06-02T06:25:56.022Z,74.45
2017-06-02T06:26:54.276Z,74.25
2017-06-02T06:27:50.543Z,74.07
2017-06-02T06:28:46.794Z,73.99
2017-06-02T06:29:43.056Z,73.90
2017-06-02T06:30:39.303Z,73.85
2017-06-02T06:31:36.511Z,73.83
2017-06-02T06:32:32.778Z,73.81
2017-06-02T06:33:29.067Z,73.77
2017-06-02T06:34:25.375Z,73.75
2017-06-02T06:35:21.619Z,73.77
2017-06-02T06:36:18.747Z,73.76
2017-06-02T06:37:15.959Z,73.75
2017-06-02T06:38:12.267Z,73.74
2017-06-02T06:39:08.563Z,73.69
2017-06-02T06:40:04.907Z,73.63
2017-06-02T06:41:01.182Z,73.54
2017-06-02T06:41:57.447Z,73.46
2017-06-02T06:42:54.598Z,73.36
2017-06-02T06:43:50.865Z,73.32
2017-06-02T06:44:47.152Z,73.28
2017-06-02T06:45:43.399Z,73.21
2017-06-02T06:46:39.659Z,73.13
2017-06-02T06:47:35.931Z,73.02
2017-06-02T06:48:32.175Z,73.00
2017-06-02T06:49:28.419Z,73.01
2017-06-02T06:50:24.671Z,73.00
2017-06-02T06:51:20.923Z,72.94
2017-06-02T06:52:17.182Z,72.72
2017-06-02T06:53:13.434Z,72.48
2017-06-02T06:54:09.686Z,72.32
2017-06-02T06:55:05.923Z,72.16
2017-06-02T06:56:02.183Z,72.08
2017-06-02T06:56:58.435Z,72.00
2017-06-02T06:57:54.699Z,71.92
2017-06-02T06:58:50.952Z,71.75
2017-06-02T06:59:47.191Z,71.59
2017-06-02T07:00:43.435Z,71.44
2017-06-02T07:01:39.674Z,71.27
2017-06-02T07:02:37.879Z,71.35
2017-06-02T07:03:35.139Z,71.41
2017-06-02T07:04:32.151Z,71.48
2017-06-02T07:05:28.423Z,71.55
2017-06-02T07:06:25.571Z,71.63
2017-06-02T07:07:21.826Z,71.66
2017-06-02T07:08:18.115Z,71.61
2017-06-02T07:09:14.379Z,71.55
2017-06-02T07:10:10.651Z,71.46
2017-06-02T07:11:06.931Z,71.41
2017-06-02T07:12:03.191Z,71.38
2017-06-02T07:12:59.494Z,71.35
2017-06-02T07:13:55.751Z,71.34
2017-06-02T07:14:52.179Z,71.29
2017-06-02T07:15:48.431Z,71.19
2017-06-02T07:16:44.672Z,71.19
2017-06-02T07:17:40.935Z,71.19
2017-06-02T07:18:37.210Z,71.01
2017-06-02T07:19:33.474Z,70.81
2017-06-02T07:20:29.716Z,70.67
2017-06-02T07:21:25.967Z,70.62
2017-06-02T07:22:22.223Z,70.52
2017-06-02T07:23:18.490Z,70.50
2017-06-02T07:24:14.755Z,70.53
2017-06-02T07:25:10.999Z,70.46
2017-06-02T07:26:08.531Z,70.36
2017-06-02T07:27:04.797Z,70.23
2017-06-02T07:28:01.063Z,70.13
2017-06-02T07:28:57.323Z,70.02
2017-06-02T07:29:53.596Z,69.94
2017-06-02T07:30:49.891Z,69.90
2017-06-02T07:31:46.143Z,69.78
2017-06-02T07:32:42.390Z,69.58
2017-06-02T07:33:38.659Z,69.44
2017-06-02T07:34:34.955Z,69.28
2017-06-02T07:35:31.555Z,69.17
2017-06-02T07:36:27.822Z,69.02
2017-06-02T07:37:24.117Z,68.93
2017-06-02T07:38:20.375Z,68.84
2017-06-02T07:39:16.623Z,68.77
2017-06-02T07:40:12.880Z,68.74
2017-06-02T07:41:09.152Z,68.59
2017-06-02T07:42:05.407Z,68.41
2017-06-02T07:43:01.647Z,68.42
2017-06-02T07:43:57.891Z,68.40
2017-06-02T07:44:54.590Z,68.36
2017-06-02T07:45:50.835Z,68.20
2017-06-02T07:46:47.079Z,68.08
2017-06-02T07:47:43.338Z,68.01
2017-06-02T07:48:39.586Z,67.87
2017-06-02T07:49:36.871Z,67.82
2017-06-02T07:50:33.131Z,67.86
2017-06-02T07:51:29.391Z,67.86
2017-06-02T07:52:25.643Z,67.98
2017-06-02T07:53:21.886Z,68.03
2017-06-02T07:54:18.159Z,68.15
2017-06-02T07:55:15.180Z,67.98
2017-06-02T07:56:11.472Z,67.76
2017-06-02T07:57:07.719Z,67.76
2017-06-02T07:58:04.885Z,67.76
2017-06-02T07:59:01.224Z,67.79
2017-06-02T07:59:57.467Z,67.70
2017-06-02T08:00:53.711Z,67.59
2017-06-02T08:01:49.975Z,67.52
2017-06-02T08:02:46.233Z,67.60
2017-06-02T08:03:42.476Z,67.54
2017-06-02T08:04:38.732Z,67.50
2017-06-02T08:05:34.979Z,67.57
2017-06-02T08:06:31.250Z,67.60
2017-06-02T08:07:27.491Z,67.52
2017-06-02T08:08:23.747Z,67.36
2017-06-02T08:09:20.152Z,67.16
2017-06-02T08:10:16.571Z,66.82
2017-06-02T08:11:12.824Z,66.47
2017-06-02T08:12:09.111Z,66.41
2017-06-02T08:13:05.355Z,66.52
2017-06-02T08:14:01.608Z,66.62
2017-06-02T08:14:57.855Z,66.52
2017-06-02T08:15:54.100Z,66.50
2017-06-02T08:16:50.349Z,66.50
2017-06-02T08:17:46.620Z,66.49
2017-06-02T08:18:42.871Z,66.28
2017-06-02T08:19:39.111Z,66.28
2017-06-02T08:20:35.355Z,66.20
2017-06-02T08:21:31.593Z,66.07
2017-06-02T08:22:27.847Z,65.92
2017-06-02T08:23:24.107Z,65.83
2017-06-02T08:24:20.347Z,65.87
2017-06-02T08:25:16.594Z,65.95
2017-06-02T08:26:12.847Z,65.90
2017-06-02T08:27:09.079Z,65.45
2017-06-02T08:28:05.318Z,65.26
2017-06-02T08:29:01.579Z,65.01
2017-06-02T08:29:57.879Z,64.71
2017-06-02T08:30:54.143Z,64.37
2017-06-02T08:31:50.391Z,63.93
2017-06-02T08:32:46.647Z,63.82
2017-06-02T08:33:42.907Z,63.27
2017-06-02T08:34:39.147Z,62.59
2017-06-02T08:35:35.398Z,62.92
2017-06-02T08:36:31.649Z,62.44
2017-06-02T08:37:27.907Z,62.09
2017-06-02T08:38:24.147Z,61.50
2017-06-02T08:39:20.424Z,61.66
2017-06-02T08:40:16.687Z,61.21
2017-06-02T08:41:12.935Z,61.51
2017-06-02T08:42:09.175Z,61.63
2017-06-02T08:43:05.415Z,61.78
2017-06-02T08:44:01.667Z,61.87
2017-06-02T08:44:57.927Z,61.69
2017-06-02T08:45:54.167Z,61.54
2017-06-02T08:46:50.399Z,61.46
2017-06-02T08:47:46.658Z,61.47
2017-06-02T08:48:42.910Z,61.00
2017-06-02T08:49:39.179Z,60.61
2017-06-02T08:50:35.439Z,60.63
2017-06-02T08:51:31.691Z,60.12
2017-06-02T08:52:27.931Z,59.75
2017-06-02T08:53:24.175Z,59.71
2017-06-02T08:54:20.422Z,59.66
2017-06-02T08:55:16.676Z,59.81
2017-06-02T08:56:12.923Z,59.67
2017-06-02T08:57:09.174Z,59.43
2017-06-02T08:58:05.447Z,59.03
2017-06-02T08:59:01.715Z,58.76
2017-06-02T08:59:57.974Z,58.34
2017-06-02T09:00:54.252Z,58.43
2017-06-02T09:01:50.495Z,58.43
2017-06-02T09:02:46.748Z,58.43
2017-06-02T09:03:42.983Z,58.11
2017-06-02T09:04:39.227Z,57.84
2017-06-02T09:05:35.487Z,57.84
2017-06-02T09:06:31.759Z,57.65
2017-06-02T09:07:28.008Z,57.75
2017-06-02T09:08:24.271Z,57.80
2017-06-02T09:09:20.520Z,57.79
2017-06-02T09:10:16.795Z,57.79
2017-06-02T09:11:13.075Z,57.71
2017-06-02T09:12:09.320Z,57.70
2017-06-02T09:13:05.576Z,57.50
2017-06-02T09:14:01.835Z,57.43
2017-06-02T09:14:58.084Z,56.68
2017-06-02T09:15:54.367Z,56.62
2017-06-02T09:16:50.622Z,56.25
2017-06-02T09:17:46.879Z,56.18
2017-06-02T09:18:43.127Z,56.63
2017-06-02T09:19:39.392Z,56.70
2017-06-02T09:20:35.660Z,56.92
2017-06-02T09:21:31.906Z,57.04
2017-06-02T09:22:28.150Z,57.05
2017-06-02T09:23:24.400Z,56.80
2017-06-02T09:24:20.645Z,56.53
2017-06-02T09:25:16.899Z,56.42
2017-06-02T09:26:13.158Z,56.24
2017-06-02T09:27:09.399Z,56.48
2017-06-02T09:28:05.647Z,55.95
2017-06-02T09:29:01.884Z,55.94
2017-06-02T09:29:58.133Z,55.80
2017-06-02T09:30:54.398Z,55.67
2017-06-02T09:31:50.675Z,55.48
2017-06-02T09:32:46.919Z,55.27
2017-06-02T09:33:43.171Z,55.01
2017-06-02T09:34:39.420Z,54.49
2017-06-02T09:35:35.659Z,54.29
2017-06-02T09:36:31.920Z,54.54
2017-06-02T09:37:28.155Z,55.10
2017-06-02T09:38:24.412Z,55.34
2017-06-02T09:39:20.659Z,54.82
2017-06-02T09:40:16.903Z,54.26
2017-06-02T09:41:13.186Z,54.42
2017-06-02T09:42:09.439Z,54.55
2017-06-02T09:43:05.682Z,54.33
2017-06-02T09:44:01.942Z,54.33
2017-06-02T09:44:58.192Z,53.59
2017-06-02T09:45:54.444Z,52.92
2017-06-02T09:46:50.698Z,52.49
2017-06-02T09:47:46.945Z,52.12
2017-06-02T09:48:43.199Z,51.96
2017-06-02T09:49:39.440Z,51.09
2017-06-02T09:50:35.682Z,51.49
2017-06-02T09:51:31.960Z,51.23
2017-06-02T09:52:28.199Z,51.84
2017-06-02T09:53:24.435Z,51.67
2017-06-02T09:54:20.690Z,51.70
2017-06-02T09:55:16.945Z,51.16
2017-06-02T09:56:13.196Z,51.19
2017-06-02T09:57:09.463Z,51.63
2017-06-02T09:58:05.719Z,51.93
2017-06-02T09:59:01.972Z,52.10
2017-06-02T09:59:58.218Z,51.47
2017-06-02T10:00:54.473Z,50.77
2017-06-02T10:01:50.732Z,50.49
2017-06-02T10:02:46.970Z,50.76
2017-06-02T10:03:43.229Z,50.78
2017-06-02T10:04:39.495Z,50.29
2017-06-02T10:05:35.755Z,50.23
2017-06-02T10:06:32.010Z,50.46
2017-06-02T10:07:28.264Z,50.56
2017-06-02T10:08:24.512Z,50.09
2017-06-02T10:09:20.755Z,50.52
2017-06-02T10:10:16.994Z,50.70
2017-06-02T10:11:13.243Z,50.89
2017-06-02T10:12:09.499Z,51.28
2017-06-02T10:13:05.783Z,51.36
2017-06-02T10:14:02.291Z,50.59
2017-06-02T10:14:59.087Z,50.00
2017-06-02T10:15:58.878Z,49.81
2017-06-02T10:16:55.378Z,49.52
2017-06-02T10:17:51.654Z,49.70
2017-06-02T10:18:47.999Z,49.57
2017-06-02T10:19:44.255Z,49.09
2017-06-02T10:20:40.507Z,49.05
2017-06-02T10:21:36.979Z,49.30
2017-06-02T10:22:33.420Z,49.43
2017-06-02T10:23:29.779Z,49.46
2017-06-02T10:24:26.051Z,49.76
2017-06-02T10:25:22.461Z,49.62
2017-06-02T10:26:18.947Z,48.69
2017-06-02T10:27:15.211Z,48.24
2017-06-02T10:28:11.511Z,47.43
2017-06-02T10:29:07.792Z,47.45
2017-06-02T10:30:04.027Z,47.35
2017-06-02T10:31:00.272Z,47.22
2017-06-02T10:31:56.521Z,47.40
2017-06-02T10:32:52.798Z,47.06
2017-06-02T10:33:49.273Z,46.98
2017-06-02T10:34:45.668Z,47.02
2017-06-02T10:35:42.124Z,47.09
2017-06-02T10:36:38.467Z,47.32
2017-06-02T10:37:35.086Z,47.26
2017-06-02T10:38:31.373Z,47.20
2017-06-02T10:39:27.623Z,47.39
2017-06-02T10:40:23.878Z,47.74
2017-06-02T10:41:20.136Z,47.96
2017-06-02T10:42:16.419Z,48.10
2017-06-02T10:43:12.693Z,48.15
2017-06-02T10:44:09.110Z,48.18
2017-06-02T10:45:05.355Z,48.01
2017-06-02T10:46:01.607Z,47.21
2017-06-02T10:46:57.866Z,46.96
2017-06-02T10:47:54.219Z,46.86
2017-06-02T10:48:50.736Z,47.23
2017-06-02T10:49:47.027Z,47.32
2017-06-02T10:50:43.447Z,47.19
2017-06-02T10:51:39.719Z,46.48
2017-06-02T10:52:36.073Z,45.43
2017-06-02T10:53:32.323Z,45.60
2017-06-02T10:54:28.839Z,45.01
2017-06-02T10:55:25.095Z,44.62
2017-06-02T10:56:21.411Z,44.67
2017-06-02T10:57:17.663Z,43.90
2017-06-02T10:58:13.919Z,44.31
2017-06-02T10:59:10.180Z,44.04
2017-06-02T11:00:06.447Z,43.63
2017-06-02T11:01:02.706Z,43.43
2017-06-02T11:01:58.959Z,43.85
2017-06-02T11:02:55.421Z,44.12
2017-06-02T11:03:51.691Z,43.05
2017-06-02T11:04:47.951Z,41.20
2017-06-02T11:05:44.328Z,41.26
2017-06-02T11:06:40.789Z,41.07
2017-06-02T11:07:37.062Z,41.21
2017-06-02T11:08:33.310Z,41.00
2017-06-02T11:09:29.594Z,40.85
2017-06-02T11:10:25.851Z,40.85
2017-06-02T11:11:22.136Z,41.55
2017-06-02T11:12:18.390Z,42.16
2017-06-02T11:13:14.651Z,42.29
2017-06-02T11:14:10.907Z,41.99
2017-06-02T11:15:07.191Z,41.12
2017-06-02T11:16:03.448Z,41.33
2017-06-02T11:16:59.692Z,41.41
2017-06-02T11:17:55.952Z,41.33
2017-06-02T11:18:52.199Z,41.28
2017-06-02T11:19:48.463Z,41.11
2017-06-02T11:20:44.963Z,41.69
2017-06-02T11:21:41.625Z,41.23
2017-06-02T11:22:38.300Z,40.56
2017-06-02T11:23:34.579Z,40.97
2017-06-02T11:24:30.835Z,41.26
2017-06-02T11:25:27.087Z,41.76
2017-06-02T11:26:23.351Z,41.81
2017-06-02T11:27:19.619Z,41.26
2017-06-02T11:28:15.895Z,41.03
2017-06-02T11:29:12.164Z,40.72
2017-06-02T11:30:08.423Z,40.24
2017-06-02T11:31:04.674Z,40.08
2017-06-02T11:32:00.964Z,39.61
2017-06-02T11:32:57.283Z,39.77
2017-06-02T11:33:53.542Z,40.18
2017-06-02T11:34:49.763Z,39.99
2017-06-02T11:35:46.023Z,40.27
2017-06-02T11:36:42.270Z,40.46
2017-06-02T11:37:38.552Z,40.45
2017-06-02T11:38:34.800Z,40.23
2017-06-02T11:39:31.060Z,39.98
2017-06-02T11:40:27.319Z,40.95
2017-06-02T11:41:23.570Z,41.37
2017-06-02T11:42:19.831Z,41.75
2017-06-02T11:43:16.091Z,41.80
2017-06-02T11:44:12.362Z,41.95
2017-06-02T11:45:08.611Z,41.81
2017-06-02T11:46:04.867Z,41.63
2017-06-02T11:47:01.146Z,41.80
2017-06-02T11:47:57.407Z,41.75
2017-06-02T11:48:53.683Z,41.29
2017-06-02T11:49:49.942Z,40.59
2017-06-02T11:50:46.203Z,40.60
2017-06-02T11:51:42.467Z,40.61
2017-06-02T11:52:38.772Z,40.17
2017-06-02T11:53:35.052Z,40.13
2017-06-02T11:54:31.316Z,40.28
2017-06-02T11:55:27.573Z,40.37
2017-06-02T11:56:23.838Z,40.66
2017-06-02T11:57:20.111Z,40.62
2017-06-02T11:58:16.392Z,40.03
2017-06-02T11:59:12.663Z,39.94
2017-06-02T12:00:08.929Z,39.56
2017-06-02T12:01:05.199Z,39.60
2017-06-02T12:02:01.467Z,39.38
2017-06-02T12:02:57.730Z,39.17
2017-06-02T12:03:54.003Z,39.65
2017-06-02T12:04:50.276Z,39.33
2017-06-02T12:05:46.548Z,39.62
2017-06-02T12:06:42.811Z,39.61
2017-06-02T12:07:39.063Z,39.75